sensor_id;sensor_type;location;lat;lon;timestamp;pressure;altitude;pressure_sealevel;temperature;humidity
42591;BME280;28218;53.342;-6.216;2023-04-05T00:00:32;101709.25;;;11.43;100.00
42591;BME280;28218;53.342;-6.216;2023-04-05T00:03:01;101701.16;;;11.45;100.00
42591;BME280;28218;53.342;-6.216;2023-04-05T00:05:31;101702.81;;;11.46;100.00
42591;BME280;28218;53.342;-6.216;2023-04-05T00:08:00;101698.53;;;11.45;100.00
42591;BME280;28218;53.342;-6.216;2023-04-05T00:10:29;101693.53;;;11.42;100.00
42591;BME280;28218;53.342;-6.216;2023-04-05T00:12:58;101691.72;;;11.42;100.00
42591;BME280;28218;53.342;-6.216;2023-04-05T00:15:26;101677.59;;;11.43;100.00
42591;BME280;28218;53.342;-6.216;2023-04-05T00:17:55;101681.19;;;11.42;100.00
42591;BME280;28218;53.342;-6.216;2023-04-05T00:20:23;101671.31;;;11.44;100.00
42591;BME280;28218;53.342;-6.216;2023-04-05T00:22:53;101674.25;;;11.41;100.00
42591;BME280;28218;53.342;-6.216;2023-04-05T00:25:21;101666.03;;;11.44;100.00
42591;BME280;28218;53.342;-6.216;2023-04-05T00:27:49;101661.59;;;11.45;100.00
42591;BME280;28218;53.342;-6.216;2023-04-05T00:30:18;101661.44;;;11.46;100.00
42591;BME280;28218;53.342;-6.216;2023-04-05T00:32:47;101663.25;;;11.46;100.00
42591;BME280;28218;53.342;-6.216;2023-04-05T00:35:16;101664.75;;;11.48;100.00
42591;BME280;28218;53.342;-6.216;2023-04-05T00:37:44;101658.78;;;11.46;100.00
42591;BME280;28218;53.342;-6.216;2023-04-05T00:40:14;101663.94;;;11.48;100.00
42591;BME280;28218;53.342;-6.216;2023-04-05T00:42:42;101656.16;;;11.46;100.00
42591;BME280;28218;53.342;-6.216;2023-04-05T00:45:10;101645.59;;;11.46;100.00
42591;BME280;28218;53.342;-6.216;2023-04-05T00:47:40;101630.75;;;11.45;100.00
42591;BME280;28218;53.342;-6.216;2023-04-05T00:50:09;101625.91;;;11.41;100.00
42591;BME280;28218;53.342;-6.216;2023-04-05T00:52:39;101633.84;;;11.41;100.00
42591;BME280;28218;53.342;-6.216;2023-04-05T00:55:09;101632.84;;;11.42;100.00
42591;BME280;28218;53.342;-6.216;2023-04-05T00:57:39;101623.94;;;11.43;100.00
42591;BME280;28218;53.342;-6.216;2023-04-05T01:00:08;101620.84;;;11.47;100.00
42591;BME280;28218;53.342;-6.216;2023-04-05T01:02:48;101624.34;;;11.48;100.00
42591;BME280;28218;53.342;-6.216;2023-04-05T01:05:28;101626.66;;;11.51;100.00
42591;BME280;28218;53.342;-6.216;2023-04-05T01:08:03;101620.41;;;11.52;100.00
42591;BME280;28218;53.342;-6.216;2023-04-05T01:10:38;101609.72;;;11.54;100.00
42591;BME280;28218;53.342;-6.216;2023-04-05T01:13:11;101611.34;;;11.55;100.00
42591;BME280;28218;53.342;-6.216;2023-04-05T01:15:40;101600.63;;;11.56;100.00
42591;BME280;28218;53.342;-6.216;2023-04-05T01:18:08;101599.66;;;11.57;100.00
42591;BME280;28218;53.342;-6.216;2023-04-05T01:20:45;101605.09;;;11.56;100.00
42591;BME280;28218;53.342;-6.216;2023-04-05T01:23:27;101594.25;;;11.59;100.00
42591;BME280;28218;53.342;-6.216;2023-04-05T01:26:23;101588.13;;;11.58;100.00
42591;BME280;28218;53.342;-6.216;2023-04-05T01:31:59;101585.16;;;11.61;100.00
42591;BME280;28218;53.342;-6.216;2023-04-05T01:34:35;101583.22;;;11.63;100.00
42591;BME280;28218;53.342;-6.216;2023-04-05T01:37:10;101583.22;;;11.63;100.00
42591;BME280;28218;53.342;-6.216;2023-04-05T01:39:39;101582.22;;;11.64;100.00
42591;BME280;28218;53.342;-6.216;2023-04-05T01:42:09;101575.13;;;11.65;100.00
42591;BME280;28218;53.342;-6.216;2023-04-05T01:44:37;101581.25;;;11.65;100.00
42591;BME280;28218;53.342;-6.216;2023-04-05T01:47:07;101580.94;;;11.68;100.00
42591;BME280;28218;53.342;-6.216;2023-04-05T01:49:35;101581.78;;;11.69;100.00
42591;BME280;28218;53.342;-6.216;2023-04-05T01:52:03;101588.69;;;11.70;100.00
42591;BME280;28218;53.342;-6.216;2023-04-05T01:54:31;101577.97;;;11.71;100.00
42591;BME280;28218;53.342;-6.216;2023-04-05T01:57:00;101576.03;;;11.73;100.00
42591;BME280;28218;53.342;-6.216;2023-04-05T01:59:28;101573.22;;;11.75;100.00
42591;BME280;28218;53.342;-6.216;2023-04-05T02:01:56;101569.47;;;11.77;100.00
42591;BME280;28218;53.342;-6.216;2023-04-05T02:04:26;101559.03;;;11.76;100.00
42591;BME280;28218;53.342;-6.216;2023-04-05T02:06:54;101559.72;;;11.78;100.00
42591;BME280;28218;53.342;-6.216;2023-04-05T02:09:22;101550.97;;;11.77;100.00
42591;BME280;28218;53.342;-6.216;2023-04-05T02:11:50;101538.59;;;11.78;100.00
42591;BME280;28218;53.342;-6.216;2023-04-05T02:14:18;101535.25;;;11.76;100.00
42591;BME280;28218;53.342;-6.216;2023-04-05T02:16:46;101533.63;;;11.75;100.00
42591;BME280;28218;53.342;-6.216;2023-04-05T02:19:15;101544.88;;;11.77;100.00
42591;BME280;28218;53.342;-6.216;2023-04-05T02:21:50;101537.78;;;11.77;100.00
42591;BME280;28218;53.342;-6.216;2023-04-05T02:24:20;101537.25;;;11.74;100.00
42591;BME280;28218;53.342;-6.216;2023-04-05T02:26:48;101538.06;;;11.74;100.00
42591;BME280;28218;53.342;-6.216;2023-04-05T02:29:16;101529.03;;;11.77;100.00
42591;BME280;28218;53.342;-6.216;2023-04-05T02:31:45;101529.84;;;11.77;100.00
42591;BME280;28218;53.342;-6.216;2023-04-05T02:34:13;101517.63;;;11.76;100.00
42591;BME280;28218;53.342;-6.216;2023-04-05T02:36:41;101530.16;;;11.74;100.00
42591;BME280;28218;53.342;-6.216;2023-04-05T02:39:11;101526.22;;;11.78;100.00
42591;BME280;28218;53.342;-6.216;2023-04-05T02:41:40;101518.28;;;11.78;100.00
42591;BME280;28218;53.342;-6.216;2023-04-05T02:44:08;101510.06;;;11.82;100.00
42591;BME280;28218;53.342;-6.216;2023-04-05T02:46:36;101510.75;;;11.84;100.00
42591;BME280;28218;53.342;-6.216;2023-04-05T02:49:05;101509.13;;;11.83;100.00
42591;BME280;28218;53.342;-6.216;2023-04-05T02:51:33;101503.00;;;11.82;100.00
42591;BME280;28218;53.342;-6.216;2023-04-05T02:54:01;101503.97;;;11.81;100.00
42591;BME280;28218;53.342;-6.216;2023-04-05T02:56:31;101504.78;;;11.82;100.00
42591;BME280;28218;53.342;-6.216;2023-04-05T02:59:00;101505.66;;;11.82;100.00
42591;BME280;28218;53.342;-6.216;2023-04-05T03:01:28;101506.31;;;11.84;100.00
42591;BME280;28218;53.342;-6.216;2023-04-05T03:03:58;101492.28;;;11.84;100.00
42591;BME280;28218;53.342;-6.216;2023-04-05T03:06:26;101497.84;;;11.81;100.00
42591;BME280;28218;53.342;-6.216;2023-04-05T03:08:57;101494.91;;;11.84;100.00
42591;BME280;28218;53.342;-6.216;2023-04-05T03:11:27;101483.66;;;11.82;100.00
42591;BME280;28218;53.342;-6.216;2023-04-05T03:13:57;101478.91;;;11.85;100.00
42591;BME280;28218;53.342;-6.216;2023-04-05T03:16:25;101486.19;;;11.83;100.00
42591;BME280;28218;53.342;-6.216;2023-04-05T03:18:54;101482.41;;;11.86;100.00
42591;BME280;28218;53.342;-6.216;2023-04-05T03:21:22;101487.22;;;11.90;100.00
42591;BME280;28218;53.342;-6.216;2023-04-05T03:23:52;101489.47;;;11.85;100.00
42591;BME280;28218;53.342;-6.216;2023-04-05T03:26:21;101486.00;;;11.85;100.00
42591;BME280;28218;53.342;-6.216;2023-04-05T03:28:50;101482.41;;;11.86;100.00
42591;BME280;28218;53.342;-6.216;2023-04-05T03:31:19;101478.09;;;11.85;100.00
42591;BME280;28218;53.342;-6.216;2023-04-05T03:33:48;101476.28;;;11.85;100.00
42591;BME280;28218;53.342;-6.216;2023-04-05T03:36:16;101476.28;;;11.85;100.00
42591;BME280;28218;53.342;-6.216;2023-04-05T03:38:45;101472.81;;;11.85;100.00
42591;BME280;28218;53.342;-6.216;2023-04-05T03:41:13;101466.69;;;11.84;100.00
42591;BME280;28218;53.342;-6.216;2023-04-05T03:43:41;101465.72;;;11.85;100.00
42591;BME280;28218;53.342;-6.216;2023-04-05T03:46:10;101465.72;;;11.85;100.00
42591;BME280;28218;53.342;-6.216;2023-04-05T03:48:39;101467.22;;;11.88;100.00
42591;BME280;28218;53.342;-6.216;2023-04-05T03:51:07;101471.84;;;11.86;100.00
42591;BME280;28218;53.342;-6.216;2023-04-05T03:53:35;101467.22;;;11.88;100.00
42591;BME280;28218;53.342;-6.216;2023-04-05T03:56:04;101468.22;;;11.87;100.00
42591;BME280;28218;53.342;-6.216;2023-04-05T03:58:32;101460.44;;;11.85;100.00
42591;BME280;28218;53.342;-6.216;2023-04-05T04:01:00;101462.25;;;11.85;100.00
42591;BME280;28218;53.342;-6.216;2023-04-05T04:03:28;101462.09;;;11.86;100.00
42591;BME280;28218;53.342;-6.216;2023-04-05T04:05:59;101464.88;;;11.85;100.00
42591;BME280;28218;53.342;-6.216;2023-04-05T04:08:27;101457.78;;;11.85;100.00
42591;BME280;28218;53.342;-6.216;2023-04-05T04:10:55;101455.84;;;11.87;100.00
42591;BME280;28218;53.342;-6.216;2023-04-05T04:13:24;101455.53;;;11.90;100.00
42591;BME280;28218;53.342;-6.216;2023-04-05T04:15:52;101453.53;;;11.92;100.00
42591;BME280;28218;53.342;-6.216;2023-04-05T04:18:20;101450.06;;;11.92;100.00
42591;BME280;28218;53.342;-6.216;2023-04-05T04:20:48;101451.72;;;11.93;100.00
42591;BME280;28218;53.342;-6.216;2023-04-05T04:23:19;101450.06;;;11.92;100.00
42591;BME280;28218;53.342;-6.216;2023-04-05T04:25:49;101447.59;;;11.90;100.00
42591;BME280;28218;53.342;-6.216;2023-04-05T04:28:20;101445.94;;;11.89;100.00
42591;BME280;28218;53.342;-6.216;2023-04-05T04:30:51;101455.53;;;11.90;100.00
42591;BME280;28218;53.342;-6.216;2023-04-05T04:33:19;101453.72;;;11.91;100.00
42591;BME280;28218;53.342;-6.216;2023-04-05T04:35:47;101452.88;;;11.90;100.00
42591;BME280;28218;53.342;-6.216;2023-04-05T04:38:15;101446.59;;;11.91;100.00
42591;BME280;28218;53.342;-6.216;2023-04-05T04:40:47;101436.03;;;11.91;100.00
42591;BME280;28218;53.342;-6.216;2023-04-05T04:43:16;101439.69;;;11.90;100.00
42591;BME280;28218;53.342;-6.216;2023-04-05T04:45:45;101441.16;;;11.93;100.00
42591;BME280;28218;53.342;-6.216;2023-04-05T04:48:14;101438.81;;;11.90;100.00
42591;BME280;28218;53.342;-6.216;2023-04-05T04:50:43;101445.78;;;11.91;100.00
42591;BME280;28218;53.342;-6.216;2023-04-05T04:53:12;101437.88;;;11.91;100.00
42591;BME280;28218;53.342;-6.216;2023-04-05T04:55:43;101423.66;;;11.92;100.00
42591;BME280;28218;53.342;-6.216;2023-04-05T04:58:13;101429.59;;;11.94;100.00
42591;BME280;28218;53.342;-6.216;2023-04-05T05:00:41;101425.31;;;11.93;100.00
42591;BME280;28218;53.342;-6.216;2023-04-05T05:03:11;101419.84;;;11.94;100.00
42591;BME280;28218;53.342;-6.216;2023-04-05T05:05:43;101418.91;;;11.95;100.00
42591;BME280;28218;53.342;-6.216;2023-04-05T05:08:12;101414.56;;;11.94;100.00
42591;BME280;28218;53.342;-6.216;2023-04-05T05:10:40;101415.25;;;11.96;100.00
42591;BME280;28218;53.342;-6.216;2023-04-05T05:13:09;101405.69;;;11.95;100.00
42591;BME280;28218;53.342;-6.216;2023-04-05T05:15:39;101401.06;;;11.97;100.00
42591;BME280;28218;53.342;-6.216;2023-04-05T05:18:08;101400.25;;;11.97;100.00
42591;BME280;28218;53.342;-6.216;2023-04-05T05:20:36;101392.16;;;11.98;100.00
42591;BME280;28218;53.342;-6.216;2023-04-05T05:23:05;101395.59;;;11.99;100.00
42591;BME280;28218;53.342;-6.216;2023-04-05T05:25:33;101386.72;;;12.00;100.00
42591;BME280;28218;53.342;-6.216;2023-04-05T05:28:01;101389.19;;;12.01;100.00
42591;BME280;28218;53.342;-6.216;2023-04-05T05:30:29;101388.03;;;12.04;100.00
42591;BME280;28218;53.342;-6.216;2023-04-05T05:32:59;101383.59;;;12.05;100.00
42591;BME280;28218;53.342;-6.216;2023-04-05T05:35:28;101385.06;;;12.07;100.00
42591;BME280;28218;53.342;-6.216;2023-04-05T05:37:56;101390.34;;;12.07;100.00
42591;BME280;28218;53.342;-6.216;2023-04-05T05:40:24;101390.19;;;12.09;100.00
42591;BME280;28218;53.342;-6.216;2023-04-05T05:42:53;101386.59;;;12.10;100.00
42591;BME280;28218;53.342;-6.216;2023-04-05T05:45:21;101390.88;;;12.11;100.00
42591;BME280;28218;53.342;-6.216;2023-04-05T05:47:49;101396.16;;;12.11;100.00
42591;BME280;28218;53.342;-6.216;2023-04-05T05:50:19;101393.50;;;12.11;100.00
42591;BME280;28218;53.342;-6.216;2023-04-05T05:52:47;101394.97;;;12.13;100.00
42591;BME280;28218;53.342;-6.216;2023-04-05T05:55:16;101393.50;;;12.11;100.00
42591;BME280;28218;53.342;-6.216;2023-04-05T05:57:44;101394.34;;;12.11;100.00
42591;BME280;28218;53.342;-6.216;2023-04-05T06:00:14;101393.50;;;12.11;100.00
42591;BME280;28218;53.342;-6.216;2023-04-05T06:02:42;101391.88;;;12.10;100.00
42591;BME280;28218;53.342;-6.216;2023-04-05T06:05:10;101394.16;;;12.13;100.00
42591;BME280;28218;53.342;-6.216;2023-04-05T06:07:40;101395.50;;;12.17;100.00
42591;BME280;28218;53.342;-6.216;2023-04-05T06:10:09;101388.25;;;12.19;100.00
42591;BME280;28218;53.342;-6.216;2023-04-05T06:12:37;101386.44;;;12.19;100.00
42591;BME280;28218;53.342;-6.216;2023-04-05T06:15:06;101384.63;;;12.20;100.00
42591;BME280;28218;53.342;-6.216;2023-04-05T06:17:35;101384.63;;;12.20;100.00
42591;BME280;28218;53.342;-6.216;2023-04-05T06:20:08;101387.91;;;12.22;100.00
42591;BME280;28218;53.342;-6.216;2023-04-05T06:22:37;101377.34;;;12.22;100.00
42591;BME280;28218;53.342;-6.216;2023-04-05T06:25:09;101384.28;;;12.23;100.00
42591;BME280;28218;53.342;-6.216;2023-04-05T06:27:38;101382.78;;;12.20;100.00
42591;BME280;28218;53.342;-6.216;2023-04-05T06:30:07;101387.09;;;12.21;100.00
42591;BME280;28218;53.342;-6.216;2023-04-05T06:32:36;101382.13;;;12.26;100.00
42591;BME280;28218;53.342;-6.216;2023-04-05T06:35:05;101383.28;;;12.32;100.00
42591;BME280;28218;53.342;-6.216;2023-04-05T06:37:33;101384.28;;;12.31;100.00
42591;BME280;28218;53.342;-6.216;2023-04-05T06:40:02;101383.13;;;12.25;100.00
42591;BME280;28218;53.342;-6.216;2023-04-05T06:42:32;101392.06;;;12.24;100.00
42591;BME280;28218;53.342;-6.216;2023-04-05T06:45:00;101387.41;;;12.26;100.00
42591;BME280;28218;53.342;-6.216;2023-04-05T06:47:32;101382.81;;;12.28;100.00
42591;BME280;28218;53.342;-6.216;2023-04-05T06:50:00;101379.69;;;12.33;100.00
42591;BME280;28218;53.342;-6.216;2023-04-05T06:52:29;101368.78;;;12.36;100.00
42591;BME280;28218;53.342;-6.216;2023-04-05T06:54:57;101363.34;;;12.38;100.00
42591;BME280;28218;53.342;-6.216;2023-04-05T06:57:26;101366.31;;;12.43;100.00
42591;BME280;28218;53.342;-6.216;2023-04-05T06:59:55;101363.50;;;12.44;100.00
42591;BME280;28218;53.342;-6.216;2023-04-05T07:02:24;101366.66;;;12.48;100.00
42591;BME280;28218;53.342;-6.216;2023-04-05T07:04:52;101362.19;;;12.48;100.00
42591;BME280;28218;53.342;-6.216;2023-04-05T07:07:26;101362.84;;;12.59;100.00
42591;BME280;28218;53.342;-6.216;2023-04-05T07:09:54;101360.53;;;12.64;100.00
42591;BME280;28218;53.342;-6.216;2023-04-05T07:12:23;101363.50;;;12.69;100.00
42591;BME280;28218;53.342;-6.216;2023-04-05T07:14:51;101361.03;;;12.75;100.00
42591;BME280;28218;53.342;-6.216;2023-04-05T07:17:21;101359.22;;;12.76;100.00
42591;BME280;28218;53.342;-6.216;2023-04-05T07:19:49;101356.38;;;12.77;100.00
42591;BME280;28218;53.342;-6.216;2023-04-05T07:22:18;101360.66;;;12.78;100.00
42591;BME280;28218;53.342;-6.216;2023-04-05T07:24:46;101357.88;;;12.80;100.00
42591;BME280;28218;53.342;-6.216;2023-04-05T07:27:14;101356.88;;;12.81;100.00
42591;BME280;28218;53.342;-6.216;2023-04-05T07:29:42;101354.06;;;12.83;100.00
42591;BME280;28218;53.342;-6.216;2023-04-05T07:32:13;101355.06;;;12.82;100.00
42591;BME280;28218;53.342;-6.216;2023-04-05T07:34:43;101367.28;;;12.83;100.00
42591;BME280;28218;53.342;-6.216;2023-04-05T07:37:11;101355.72;;;12.84;100.00
42591;BME280;28218;53.342;-6.216;2023-04-05T07:39:39;101355.72;;;12.84;100.00
42591;BME280;28218;53.342;-6.216;2023-04-05T07:42:07;101354.56;;;12.86;100.00
42591;BME280;28218;53.342;-6.216;2023-04-05T07:44:36;101350.28;;;12.85;100.00
42591;BME280;28218;53.342;-6.216;2023-04-05T07:47:04;101352.56;;;12.88;100.00
42591;BME280;28218;53.342;-6.216;2023-04-05T07:49:32;101351.75;;;12.88;100.00
42591;BME280;28218;53.342;-6.216;2023-04-05T07:52:02;101353.56;;;12.87;100.00
42591;BME280;28218;53.342;-6.216;2023-04-05T07:54:30;101348.78;;;12.91;100.00
42591;BME280;28218;53.342;-6.216;2023-04-05T07:56:59;101345.94;;;12.92;100.00
42591;BME280;28218;53.342;-6.216;2023-04-05T07:59:28;101338.69;;;12.94;100.00
42591;BME280;28218;53.342;-6.216;2023-04-05T08:01:56;101334.53;;;13.08;100.00
42591;BME280;28218;53.342;-6.216;2023-04-05T08:04:37;101335.66;;;13.14;100.00
42591;BME280;28218;53.342;-6.216;2023-04-05T08:07:07;101342.09;;;13.19;100.00
42591;BME280;28218;53.342;-6.216;2023-04-05T08:09:35;101334.31;;;13.18;100.00
42591;BME280;28218;53.342;-6.216;2023-04-05T08:12:04;101334.16;;;13.19;100.00
42591;BME280;28218;53.342;-6.216;2023-04-05T08:14:32;101342.72;;;13.21;100.00
42591;BME280;28218;53.342;-6.216;2023-04-05T08:17:01;101340.59;;;13.25;100.00
42591;BME280;28218;53.342;-6.216;2023-04-05T08:19:29;101340.09;;;13.29;100.00
42591;BME280;28218;53.342;-6.216;2023-04-05T08:21:57;101336.94;;;13.34;100.00
42591;BME280;28218;53.342;-6.216;2023-04-05T08:24:27;101330.50;;;13.37;100.00
42591;BME280;28218;53.342;-6.216;2023-04-05T08:26:55;101333.78;;;13.39;100.00
42591;BME280;28218;53.342;-6.216;2023-04-05T08:29:23;101334.91;;;13.44;100.00
42591;BME280;28218;53.342;-6.216;2023-04-05T08:31:51;101323.66;;;13.50;100.00
42591;BME280;28218;53.342;-6.216;2023-04-05T08:34:19;101328.25;;;13.57;100.00
42591;BME280;28218;53.342;-6.216;2023-04-05T08:36:47;101322.06;;;13.64;100.00
42591;BME280;28218;53.342;-6.216;2023-04-05T08:39:16;101314.47;;;13.69;100.00
42591;BME280;28218;53.342;-6.216;2023-04-05T08:41:51;101320.22;;;13.73;100.00
42591;BME280;28218;53.342;-6.216;2023-04-05T08:44:24;101315.50;;;13.83;100.00
42591;BME280;28218;53.342;-6.216;2023-04-05T08:46:55;101323.78;;;13.88;100.00
42591;BME280;28218;53.342;-6.216;2023-04-05T08:49:23;101314.66;;;13.91;100.00
42591;BME280;28218;53.342;-6.216;2023-04-05T08:51:52;101315.47;;;13.91;100.00
42591;BME280;28218;53.342;-6.216;2023-04-05T08:54:20;101314.13;;;13.95;100.00
42591;BME280;28218;53.342;-6.216;2023-04-05T08:56:51;101315.41;;;13.99;100.00
42591;BME280;28218;53.342;-6.216;2023-04-05T08:59:21;101311.38;;;14.12;100.00
42591;BME280;28218;53.342;-6.216;2023-04-05T09:01:51;101315.78;;;14.19;100.00
42591;BME280;28218;53.342;-6.216;2023-04-05T09:04:21;101316.06;;;14.24;100.00
42591;BME280;28218;53.342;-6.216;2023-04-05T09:06:51;101324.84;;;14.25;100.00
42591;BME280;28218;53.342;-6.216;2023-04-05T09:09:20;101321.38;;;14.24;100.00
42591;BME280;28218;53.342;-6.216;2023-04-05T09:11:51;101318.72;;;14.24;100.00
42591;BME280;28218;53.342;-6.216;2023-04-05T09:14:19;101321.88;;;14.20;100.00
42591;BME280;28218;53.342;-6.216;2023-04-05T09:16:48;101325.91;;;14.16;100.00
42591;BME280;28218;53.342;-6.216;2023-04-05T09:19:16;101312.19;;;14.12;100.00
42591;BME280;28218;53.342;-6.216;2023-04-05T09:21:57;101316.78;;;14.18;100.00
42591;BME280;28218;53.342;-6.216;2023-04-05T09:24:31;101306.66;;;14.22;100.00
42591;BME280;28218;53.342;-6.216;2023-04-05T09:27:07;101303.28;;;14.28;100.00
42591;BME280;28218;53.342;-6.216;2023-04-05T09:29:36;101301.94;;;14.32;100.00
42591;BME280;28218;53.342;-6.216;2023-04-05T09:32:06;101305.88;;;14.36;100.00
42591;BME280;28218;53.342;-6.216;2023-04-05T09:34:35;101301.69;;;14.42;100.00
42591;BME280;28218;53.342;-6.216;2023-04-05T09:37:11;101302.16;;;14.45;100.00
42591;BME280;28218;53.342;-6.216;2023-04-05T09:39:40;101304.94;;;14.52;100.00
42591;BME280;28218;53.342;-6.216;2023-04-05T09:42:11;101307.50;;;14.60;100.00
42591;BME280;28218;53.342;-6.216;2023-04-05T09:44:50;101302.50;;;14.65;100.00
42591;BME280;28218;53.342;-6.216;2023-04-05T09:47:20;101300.75;;;14.72;100.00
42591;BME280;28218;53.342;-6.216;2023-04-05T09:49:49;101307.00;;;14.79;100.00
42591;BME280;28218;53.342;-6.216;2023-04-05T09:52:18;101311.94;;;14.82;100.00
42591;BME280;28218;53.342;-6.216;2023-04-05T09:54:47;101315.41;;;14.83;100.00
42591;BME280;28218;53.342;-6.216;2023-04-05T09:57:17;101312.94;;;14.81;100.00
42591;BME280;28218;53.342;-6.216;2023-04-05T09:59:46;101318.22;;;14.81;100.00
42591;BME280;28218;53.342;-6.216;2023-04-05T10:02:14;101321.75;;;14.82;100.00
42591;BME280;28218;53.342;-6.216;2023-04-05T10:04:44;101329.56;;;14.75;100.00
42591;BME280;28218;53.342;-6.216;2023-04-05T10:07:15;101324.47;;;14.74;100.00
42591;BME280;28218;53.342;-6.216;2023-04-05T10:09:46;101323.81;;;14.72;100.00
42591;BME280;28218;53.342;-6.216;2023-04-05T10:12:23;101327.13;;;14.74;100.00
42591;BME280;28218;53.342;-6.216;2023-04-05T10:14:53;101332.50;;;14.80;100.00
42591;BME280;28218;53.342;-6.216;2023-04-05T10:17:24;101335.28;;;14.87;100.00
42591;BME280;28218;53.342;-6.216;2023-04-05T10:20:05;101324.75;;;14.94;100.00
42591;BME280;28218;53.342;-6.216;2023-04-05T10:22:47;101330.81;;;15.02;100.00
42591;BME280;28218;53.342;-6.216;2023-04-05T10:25:23;101323.31;;;15.06;100.00
42591;BME280;28218;53.342;-6.216;2023-04-05T10:27:56;101319.56;;;15.15;100.00
42591;BME280;28218;53.342;-6.216;2023-04-05T10:30:34;101329.97;;;15.17;100.00
42591;BME280;28218;53.342;-6.216;2023-04-05T10:33:10;101325.13;;;15.20;100.00
42591;BME280;28218;53.342;-6.216;2023-04-05T10:35:49;101331.06;;;15.22;100.00
42591;BME280;28218;53.342;-6.216;2023-04-05T10:38:23;101323.19;;;15.29;100.00
42591;BME280;28218;53.342;-6.216;2023-04-05T10:40:52;101328.13;;;15.32;100.00
42591;BME280;28218;53.342;-6.216;2023-04-05T10:43:24;101336.75;;;15.34;100.00
42591;BME280;28218;53.342;-6.216;2023-04-05T10:45:53;101326.97;;;15.34;100.00
42591;BME280;28218;53.342;-6.216;2023-04-05T10:48:32;101317.50;;;15.32;100.00
42591;BME280;28218;53.342;-6.216;2023-04-05T10:51:02;101323.47;;;15.34;100.00
42591;BME280;28218;53.342;-6.216;2023-04-05T10:53:31;101324.84;;;15.30;100.00
42591;BME280;28218;53.342;-6.216;2023-04-05T10:56:00;101328.50;;;15.29;100.00
42591;BME280;28218;53.342;-6.216;2023-04-05T10:58:31;101325.56;;;15.24;100.00
42591;BME280;28218;53.342;-6.216;2023-04-05T11:01:00;101328.69;;;15.13;100.00
42591;BME280;28218;53.342;-6.216;2023-04-05T11:03:46;101325.78;;;15.07;100.00
42591;BME280;28218;53.342;-6.216;2023-04-05T11:06:20;101324.00;;;15.15;100.00
42591;BME280;28218;53.342;-6.216;2023-04-05T11:08:52;101327.94;;;15.19;100.00
42591;BME280;28218;53.342;-6.216;2023-04-05T11:11:22;101327.59;;;15.22;100.00
42591;BME280;28218;53.342;-6.216;2023-04-05T11:13:54;101330.88;;;15.24;100.00
42591;BME280;28218;53.342;-6.216;2023-04-05T11:16:37;101322.06;;;15.38;100.00
42591;BME280;28218;53.342;-6.216;2023-04-05T11:19:06;101329.19;;;15.52;100.00
42591;BME280;28218;53.342;-6.216;2023-04-05T11:21:34;101316.78;;;15.68;100.00
42591;BME280;28218;53.342;-6.216;2023-04-05T11:24:05;101319.84;;;15.86;100.00
42591;BME280;28218;53.342;-6.216;2023-04-05T11:26:52;101322.44;;;16.01;100.00
42591;BME280;28218;53.342;-6.216;2023-04-05T11:29:47;101320.50;;;16.09;100.00
42591;BME280;28218;53.342;-6.216;2023-04-05T11:32:20;101303.41;;;16.19;100.00
42591;BME280;28218;53.342;-6.216;2023-04-05T11:34:59;101305.19;;;16.40;100.00
42591;BME280;28218;53.342;-6.216;2023-04-05T11:38:01;101311.44;;;16.53;100.00
42591;BME280;28218;53.342;-6.216;2023-04-05T11:40:34;101308.16;;;16.73;100.00
42591;BME280;28218;53.342;-6.216;2023-04-05T11:43:04;101320.63;;;16.72;100.00
42591;BME280;28218;53.342;-6.216;2023-04-05T11:45:36;101325.38;;;16.77;100.00
42591;BME280;28218;53.342;-6.216;2023-04-05T11:48:05;101330.63;;;16.70;100.00
42591;BME280;28218;53.342;-6.216;2023-04-05T11:50:35;101322.81;;;16.69;100.00
42591;BME280;28218;53.342;-6.216;2023-04-05T11:53:12;101325.25;;;16.64;100.00
42591;BME280;28218;53.342;-6.216;2023-04-05T11:55:41;101311.72;;;16.65;100.00
42591;BME280;28218;53.342;-6.216;2023-04-05T11:58:11;101308.91;;;16.67;100.00
42591;BME280;28218;53.342;-6.216;2023-04-05T12:00:41;101305.78;;;16.63;100.00
42591;BME280;28218;53.342;-6.216;2023-04-05T12:03:11;101307.78;;;16.54;100.00
42591;BME280;28218;53.342;-6.216;2023-04-05T12:05:47;101313.28;;;16.53;100.00
42591;BME280;28218;53.342;-6.216;2023-04-05T12:08:16;101315.50;;;16.49;100.00
42591;BME280;28218;53.342;-6.216;2023-04-05T12:10:52;101311.47;;;16.32;100.00
42591;BME280;28218;53.342;-6.216;2023-04-05T12:13:25;101312.03;;;16.27;100.00
42591;BME280;28218;53.342;-6.216;2023-04-05T12:15:56;101313.13;;;16.12;100.00
42591;BME280;28218;53.342;-6.216;2023-04-05T12:18:26;101305.72;;;16.07;100.00
42591;BME280;28218;53.342;-6.216;2023-04-05T12:20:54;101300.97;;;16.02;100.00
42591;BME280;28218;53.342;-6.216;2023-04-05T12:23:24;101303.88;;;16.07;100.00
42591;BME280;28218;53.342;-6.216;2023-04-05T12:25:53;101297.19;;;16.12;100.00
42591;BME280;28218;53.342;-6.216;2023-04-05T12:28:22;101293.50;;;16.13;100.00
42591;BME280;28218;53.342;-6.216;2023-04-05T12:30:52;101291.66;;;16.13;100.00
42591;BME280;28218;53.342;-6.216;2023-04-05T12:33:29;101293.06;;;16.09;100.00
42591;BME280;28218;53.342;-6.216;2023-04-05T12:36:03;101292.19;;;16.02;100.00
42591;BME280;28218;53.342;-6.216;2023-04-05T12:38:32;101292.50;;;15.92;100.00
42591;BME280;28218;53.342;-6.216;2023-04-05T12:41:01;101295.09;;;15.86;100.00
42591;BME280;28218;53.342;-6.216;2023-04-05T12:43:37;101288.31;;;15.83;100.00
42591;BME280;28218;53.342;-6.216;2023-04-05T12:46:09;101295.84;;;15.79;100.00
42591;BME280;28218;53.342;-6.216;2023-04-05T12:48:40;101290.16;;;15.82;100.00